Time;durP1;ratioP1;P1;durP2;ratioP2;P2;SDS_P1;SDS_P2;PMS_P1;PMS_P2;Temp;Humidity;BMP_temperature;BMP_pressure;BME280_temperature;BME280_humidity;BME280_pressure;Samples;Min_cycle;Max_cycle;Signal;HPM_P1;HPM_P2
2022/08/17 00:02:00;;;;;;;;;;;28.10;92.70;;;;;;5066513;28;19908;-52
2022/08/17 00:04:26;;;;;;;;;;;28.10;92.70;;;;;;5066639;28;20193;-56
2022/08/17 00:06:52;;;;;;;;;;;28.10;92.70;;;;;;5066695;28;19908;-56
2022/08/17 00:09:19;;;;;;;;;;;28.10;92.90;;;;;;5066972;28;19913;-52
2022/08/17 00:11:46;;;;;;;;;;;28.10;92.90;;;;;;5066618;28;19908;-54
2022/08/17 00:14:14;;;;;;;;;;;28.10;92.80;;;;;;5066529;28;19921;-56
2022/08/17 00:16:42;;;;;;;;;;;28.10;92.90;;;;;;5066509;28;19909;-55
2022/08/17 00:19:10;;;;;;;;;;;28.10;93.00;;;;;;5066734;28;19984;-54
2022/08/17 00:21:38;;;;;;;;;;;28.00;93.00;;;;;;5066773;28;19931;-51
2022/08/17 00:24:05;;;;;;;;;;;28.00;93.00;;;;;;5066416;28;19958;-54
2022/08/17 00:26:31;;;;;;;;;;;28.00;93.00;;;;;;5066252;28;20019;-52
2022/08/17 00:28:57;;;;;;;;;;;28.00;93.10;;;;;;5066611;28;19913;-57
2022/08/17 00:31:23;;;;;;;;;;;28.00;93.00;;;;;;5066240;28;20092;-55
2022/08/17 00:33:50;;;;;;;;;;;28.00;93.00;;;;;;5066797;28;20241;-53
2022/08/17 00:36:16;;;;;;;;;;;28.00;93.00;;;;;;5066349;28;19909;-54
2022/08/17 00:38:42;;;;;;;;;;;28.00;93.00;;;;;;5065755;28;19980;-58
2022/08/17 00:41:13;;;;;;;;;;;28.00;92.90;;;;;;5065635;28;19944;-56
2022/08/17 00:43:46;;;;;;;;;;;27.90;92.90;;;;;;5065674;28;20200;-55
2022/08/17 00:46:20;;;;;;;;;;;27.90;92.80;;;;;;5065492;28;19931;-52
2022/08/17 00:48:46;;;;;;;;;;;27.80;92.90;;;;;;5066037;28;20216;-60
2022/08/17 00:51:22;;;;;;;;;;;27.80;93.10;;;;;;5064819;28;19912;-56
2022/08/17 00:53:59;;;;;;;;;;;27.80;93.30;;;;;;5065847;28;20011;-53
2022/08/17 00:56:29;;;;;;;;;;;27.70;93.50;;;;;;5065822;28;19916;-55
2022/08/17 00:58:56;;;;;;;;;;;27.70;93.40;;;;;;5069284;28;19912;-54
2022/08/17 01:01:22;;;;;;;;;;;27.70;93.30;;;;;;5066196;28;19909;-58
2022/08/17 01:03:50;;;;;;;;;;;27.60;93.40;;;;;;5071222;28;19912;-53
2022/08/17 01:06:16;;;;;;;;;;;27.60;93.40;;;;;;5064400;28;20213;-54
2022/08/17 01:08:42;;;;;;;;;;;27.50;93.30;;;;;;5054226;28;20135;-55
2022/08/17 01:11:09;;;;;;;;;;;27.50;93.40;;;;;;5070843;28;20104;-54
2022/08/17 01:13:41;;;;;;;;;;;27.50;93.50;;;;;;5069894;28;19928;-56
2022/08/17 01:16:25;;;;;;;;;;;27.50;93.50;;;;;;5069400;28;19915;-59
2022/08/17 01:18:53;;;;;;;;;;;27.50;93.60;;;;;;5069489;28;19913;-54
2022/08/17 01:21:38;;;;;;;;;;;27.60;93.40;;;;;;5068887;28;19909;-57
2022/08/17 01:24:04;;;;;;;;;;;27.50;93.50;;;;;;5058835;28;19991;-56
2022/08/17 01:26:34;;;;;;;;;;;27.50;93.60;;;;;;5064692;28;20108;-57
2022/08/17 01:29:01;;;;;;;;;;;27.40;93.60;;;;;;5065398;28;20088;-53
2022/08/17 01:31:29;;;;;;;;;;;27.50;93.70;;;;;;5067486;28;19908;-55
2022/08/17 01:33:58;;;;;;;;;;;27.50;93.60;;;;;;5070080;28;19951;-54
2022/08/17 01:36:24;;;;;;;;;;;27.40;93.60;;;;;;5083528;28;19972;-55
2022/08/17 01:38:50;;;;;;;;;;;27.40;93.60;;;;;;5075126;28;20185;-58
2022/08/17 01:41:19;;;;;;;;;;;27.40;93.70;;;;;;5070913;28;19976;-55
2022/08/17 01:43:48;;;;;;;;;;;27.40;93.60;;;;;;5073914;28;20128;-56
2022/08/17 01:46:19;;;;;;;;;;;27.30;93.50;;;;;;5071727;28;19931;-53
2022/08/17 01:48:46;;;;;;;;;;;27.30;93.40;;;;;;5069781;28;19913;-52
2022/08/17 01:51:15;;;;;;;;;;;27.30;93.50;;;;;;5068239;28;19915;-52
2022/08/17 01:53:46;;;;;;;;;;;27.30;93.50;;;;;;5080591;28;19954;-54
2022/08/17 01:56:15;;;;;;;;;;;27.30;93.40;;;;;;5064933;28;19908;-53
2022/08/17 01:58:41;;;;;;;;;;;27.30;93.40;;;;;;5064319;28;19915;-56
2022/08/17 02:01:07;;;;;;;;;;;27.30;93.40;;;;;;5064005;28;19909;-52
2022/08/17 02:03:35;;;;;;;;;;;27.20;93.50;;;;;;5069994;28;19955;-52
2022/08/17 02:06:02;;;;;;;;;;;27.20;93.40;;;;;;5074612;28;19932;-50
2022/08/17 02:08:29;;;;;;;;;;;27.20;93.40;;;;;;5064030;28;19917;-55
2022/08/17 02:10:56;;;;;;;;;;;27.20;93.20;;;;;;5064141;28;19912;-51
2022/08/17 02:13:22;;;;;;;;;;;27.20;93.30;;;;;;5063579;28;19917;-55
2022/08/17 02:15:48;;;;;;;;;;;27.20;93.20;;;;;;5063845;28;19916;-53
2022/08/17 02:18:15;;;;;;;;;;;27.20;93.30;;;;;;5064116;28;20105;-53
2022/08/17 02:20:41;;;;;;;;;;;27.20;93.30;;;;;;5063769;28;19909;-54
2022/08/17 02:23:08;;;;;;;;;;;27.20;93.20;;;;;;5064073;28;19919;-52
2022/08/17 02:25:35;;;;;;;;;;;27.20;93.20;;;;;;5063877;28;19913;-53
2022/08/17 02:28:02;;;;;;;;;;;27.20;93.30;;;;;;5064162;28;20176;-55
2022/08/17 02:30:28;;;;;;;;;;;27.20;93.20;;;;;;5063998;28;19909;-52
2022/08/17 02:32:55;;;;;;;;;;;27.20;93.30;;;;;;5063765;28;20078;-53
2022/08/17 02:35:21;;;;;;;;;;;27.10;93.10;;;;;;5063735;28;19917;-56
2022/08/17 02:37:48;;;;;;;;;;;27.10;93.10;;;;;;5063705;28;20161;-56
2022/08/17 02:40:17;;;;;;;;;;;27.10;93.00;;;;;;5063572;28;19916;-53
2022/08/17 02:42:44;;;;;;;;;;;27.10;92.90;;;;;;5063841;28;19948;-53
2022/08/17 02:45:13;;;;;;;;;;;27.10;92.90;;;;;;5063395;28;19951;-52
2022/08/17 02:47:39;;;;;;;;;;;27.10;92.70;;;;;;5063750;28;19916;-52
2022/08/17 02:50:07;;;;;;;;;;;27.00;92.70;;;;;;5063019;28;19915;-51
2022/08/17 02:52:36;;;;;;;;;;;27.00;92.70;;;;;;5063578;28;19959;-53
2022/08/17 02:55:04;;;;;;;;;;;27.00;92.70;;;;;;5063419;28;19916;-52
2022/08/17 02:57:30;;;;;;;;;;;27.00;92.80;;;;;;5063773;28;20015;-52
2022/08/17 02:59:56;;;;;;;;;;;26.90;92.90;;;;;;5063307;28;20163;-55
2022/08/17 03:02:22;;;;;;;;;;;27.00;93.00;;;;;;5063279;28;20247;-51
2022/08/17 03:04:48;;;;;;;;;;;27.00;92.90;;;;;;5063530;28;19916;-52
2022/08/17 03:07:15;;;;;;;;;;;27.00;92.90;;;;;;5063298;28;19916;-52
2022/08/17 03:09:41;;;;;;;;;;;27.00;92.90;;;;;;5063088;28;19908;-55
2022/08/17 03:12:11;;;;;;;;;;;27.00;92.90;;;;;;5063204;28;19905;-53
2022/08/17 03:14:41;;;;;;;;;;;27.00;93.00;;;;;;5063338;28;20090;-51
2022/08/17 03:17:08;;;;;;;;;;;27.00;92.90;;;;;;5062934;28;19912;-51
2022/08/17 03:19:34;;;;;;;;;;;27.00;93.00;;;;;;5066009;28;19987;-58
2022/08/17 03:22:03;;;;;;;;;;;27.00;92.80;;;;;;5066958;28;19911;-58
2022/08/17 03:24:29;;;;;;;;;;;27.10;92.80;;;;;;5061059;28;20156;-52
2022/08/17 03:26:56;;;;;;;;;;;27.10;92.70;;;;;;5067150;28;19916;-57
2022/08/17 03:29:22;;;;;;;;;;;27.00;92.70;;;;;;5066755;28;19936;-48
2022/08/17 03:31:48;;;;;;;;;;;27.10;92.80;;;;;;5067259;28;19909;-52
2022/08/17 03:34:15;;;;;;;;;;;27.10;92.70;;;;;;5066804;28;19909;-54
2022/08/17 03:36:41;;;;;;;;;;;27.10;92.80;;;;;;5066734;28;19948;-51
2022/08/17 03:39:08;;;;;;;;;;;27.00;92.80;;;;;;5067611;28;19912;-51
2022/08/17 03:41:34;;;;;;;;;;;27.00;92.80;;;;;;5067287;28;19905;-52
2022/08/17 03:44:00;;;;;;;;;;;27.10;92.80;;;;;;5067450;28;20168;-54
2022/08/17 03:57:26;;;;;;;;;;;27.00;92.60;;;;;;5066843;28;20207;-52
2022/08/17 03:59:53;;;;;;;;;;;27.00;92.60;;;;;;5066643;28;19936;-53
2022/08/17 04:02:23;;;;;;;;;;;27.00;92.60;;;;;;5066362;28;19916;-54
2022/08/17 04:04:49;;;;;;;;;;;27.00;92.60;;;;;;5066540;28;19908;-56
2022/08/17 04:07:16;;;;;;;;;;;27.00;92.60;;;;;;5066477;28;20179;-55
2022/08/17 04:09:42;;;;;;;;;;;27.00;92.70;;;;;;5066550;28;19909;-57
2022/08/17 04:12:08;;;;;;;;;;;26.90;92.70;;;;;;5066417;28;19909;-56
2022/08/17 04:14:37;;;;;;;;;;;26.90;92.70;;;;;;5066132;28;19983;-53
2022/08/17 04:17:03;;;;;;;;;;;26.90;92.70;;;;;;5065996;28;19904;-52
2022/08/17 04:19:30;;;;;;;;;;;26.90;92.60;;;;;;5066176;28;19915;-55
2022/08/17 04:21:59;;;;;;;;;;;26.90;92.70;;;;;;5066141;28;20212;-54
2022/08/17 04:24:26;;;;;;;;;;;26.90;92.70;;;;;;5065396;28;19920;-53
2022/08/17 04:26:52;;;;;;;;;;;26.90;92.80;;;;;;5055176;28;19909;-52
2022/08/17 04:29:20;;;;;;;;;;;26.90;92.70;;;;;;5066016;28;20246;-52
2022/08/17 04:31:46;;;;;;;;;;;26.90;92.50;;;;;;5065310;28;19913;-54
2022/08/17 04:34:13;;;;;;;;;;;26.80;92.30;;;;;;5066537;28;19913;-51
2022/08/17 04:36:39;;;;;;;;;;;26.80;92.30;;;;;;5059638;28;19981;-53
2022/08/17 04:39:05;;;;;;;;;;;26.90;92.20;;;;;;5052888;28;19960;-54
2022/08/17 04:44:15;;;;;;;;;;;26.80;92.00;;;;;;5046278;28;19946;-51
2022/08/17 04:46:42;;;;;;;;;;;26.80;92.20;;;;;;5046050;28;20244;-51
2022/08/17 04:49:10;;;;;;;;;;;26.80;92.20;;;;;;5046365;28;19928;-51
2022/08/17 04:51:40;;;;;;;;;;;26.70;92.20;;;;;;5045720;28;19915;-53
2022/08/17 04:54:14;;;;;;;;;;;26.80;92.10;;;;;;5046214;28;19972;-53
2022/08/17 04:56:40;;;;;;;;;;;26.80;92.00;;;;;;5045660;28;19909;-54
2022/08/17 04:59:26;;;;;;;;;;;26.80;91.90;;;;;;5046075;28;19976;-52
2022/08/17 05:01:53;;;;;;;;;;;26.80;91.70;;;;;;5045430;28;19932;-51
2022/08/17 05:04:21;;;;;;;;;;;26.70;91.10;;;;;;5045952;28;20273;-52
2022/08/17 05:06:48;;;;;;;;;;;26.70;91.30;;;;;;5045516;28;19944;-52
2022/08/17 05:09:16;;;;;;;;;;;26.70;91.40;;;;;;5045896;28;19913;-57
2022/08/17 05:11:43;;;;;;;;;;;26.70;91.30;;;;;;5045470;28;19989;-51
2022/08/17 05:14:09;;;;;;;;;;;26.70;91.10;;;;;;5045157;28;20113;-51
2022/08/17 05:16:35;;;;;;;;;;;26.70;91.10;;;;;;5045398;28;19906;-54
2022/08/17 05:19:01;;;;;;;;;;;26.70;91.10;;;;;;5045656;28;19951;-52
2022/08/17 05:21:28;;;;;;;;;;;26.70;91.10;;;;;;5045212;28;19909;-54
2022/08/17 05:23:57;;;;;;;;;;;26.70;91.10;;;;;;5045629;28;19909;-55
2022/08/17 05:26:24;;;;;;;;;;;26.70;91.10;;;;;;5045113;28;19909;-53
2022/08/17 05:28:51;;;;;;;;;;;26.70;91.00;;;;;;5045663;28;19955;-54
2022/08/17 05:31:17;;;;;;;;;;;26.70;90.80;;;;;;5045079;28;20009;-52
2022/08/17 05:33:44;;;;;;;;;;;26.70;90.80;;;;;;5045293;28;19909;-51
2022/08/17 05:36:12;;;;;;;;;;;26.70;90.80;;;;;;5044973;28;19909;-51
2022/08/17 05:38:38;;;;;;;;;;;26.70;90.70;;;;;;5045395;28;19987;-51
2022/08/17 05:41:05;;;;;;;;;;;26.60;90.70;;;;;;5044751;28;19908;-51
2022/08/17 05:43:33;;;;;;;;;;;26.70;90.80;;;;;;5044359;28;19921;-51
2022/08/17 05:46:02;;;;;;;;;;;26.60;90.70;;;;;;5044784;28;19909;-52
2022/08/17 05:48:33;;;;;;;;;;;26.60;90.80;;;;;;5044917;28;20299;-51
2022/08/17 05:51:05;;;;;;;;;;;26.60;90.70;;;;;;5044699;28;19976;-51
2022/08/17 05:53:40;;;;;;;;;;;26.60;90.40;;;;;;5044880;28;19936;-56
2022/08/17 05:56:12;;;;;;;;;;;26.60;90.50;;;;;;5044604;28;20255;-53
2022/08/17 05:58:51;;;;;;;;;;;26.60;90.40;;;;;;5044509;28;19945;-52
2022/08/17 06:01:17;;;;;;;;;;;26.60;90.40;;;;;;5044580;28;20028;-51
2022/08/17 06:04:01;;;;;;;;;;;26.60;90.40;;;;;;5044784;28;19913;-52
2022/08/17 06:06:31;;;;;;;;;;;26.60;90.40;;;;;;5044712;28;19913;-53
2022/08/17 06:09:09;;;;;;;;;;;26.60;90.40;;;;;;5045050;28;19912;-55
2022/08/17 06:11:44;;;;;;;;;;;26.60;90.40;;;;;;5044333;28;20099;-52
2022/08/17 06:14:19;;;;;;;;;;;26.60;90.40;;;;;;5044253;28;19921;-53
2022/08/17 06:16:48;;;;;;;;;;;26.60;90.30;;;;;;5044238;28;19909;-51
2022/08/17 06:19:36;;;;;;;;;;;26.60;90.30;;;;;;5044866;28;20212;-52
2022/08/17 06:22:04;;;;;;;;;;;26.60;90.30;;;;;;5044284;28;19948;-52
2022/08/17 06:24:56;;;;;;;;;;;26.60;90.30;;;;;;5044463;28;20260;-51
2022/08/17 06:27:23;;;;;;;;;;;26.60;90.20;;;;;;5044009;28;19913;-52
2022/08/17 06:30:15;;;;;;;;;;;26.60;90.20;;;;;;5044402;28;19915;-51
2022/08/17 06:32:43;;;;;;;;;;;26.60;90.10;;;;;;5044127;28;20093;-52
2022/08/17 06:35:10;;;;;;;;;;;26.60;90.10;;;;;;5044420;28;19944;-53
2022/08/17 06:37:47;;;;;;;;;;;26.60;90.10;;;;;;5044868;28;19909;-51
2022/08/17 06:40:32;;;;;;;;;;;26.60;90.00;;;;;;5044179;28;20202;-54
2022/08/17 06:43:11;;;;;;;;;;;26.60;90.10;;;;;;5044225;28;19920;-53
2022/08/17 06:45:40;;;;;;;;;;;26.60;90.20;;;;;;5044063;28;19919;-51
2022/08/17 06:48:25;;;;;;;;;;;26.60;90.20;;;;;;5044257;28;19917;-52
2022/08/17 06:50:53;;;;;;;;;;;26.50;90.20;;;;;;5044074;28;19909;-50
2022/08/17 06:53:28;;;;;;;;;;;26.50;90.30;;;;;;5044855;28;19913;-51
2022/08/17 06:56:01;;;;;;;;;;;26.50;90.30;;;;;;5048034;28;19923;-51
2022/08/17 06:58:30;;;;;;;;;;;26.50;90.30;;;;;;5048078;28;19921;-60
2022/08/17 07:00:59;;;;;;;;;;;26.50;90.40;;;;;;5047695;28;19905;-50
2022/08/17 07:03:46;;;;;;;;;;;26.50;90.50;;;;;;5048180;28;19920;-49
2022/08/17 07:06:20;;;;;;;;;;;26.50;90.70;;;;;;5046851;28;19947;-52
2022/08/17 07:09:00;;;;;;;;;;;26.50;90.70;;;;;;5048358;28;19913;-53
2022/08/17 07:11:30;;;;;;;;;;;26.50;90.70;;;;;;5047921;28;19959;-51
2022/08/17 07:13:59;;;;;;;;;;;26.50;90.80;;;;;;5047885;28;19921;-52
2022/08/17 07:16:39;;;;;;;;;;;26.50;90.80;;;;;;5047711;28;20193;-54
2022/08/17 07:19:06;;;;;;;;;;;26.40;90.80;;;;;;5047996;28;20267;-52
2022/08/17 07:21:39;;;;;;;;;;;26.40;90.80;;;;;;5047596;28;19976;-52
2022/08/17 07:24:25;;;;;;;;;;;26.40;90.80;;;;;;5047647;28;19917;-52
2022/08/17 07:27:09;;;;;;;;;;;26.40;90.90;;;;;;5047580;28;20231;-56
2022/08/17 07:29:37;;;;;;;;;;;26.40;91.00;;;;;;5047460;28;20212;-56
2022/08/17 07:32:04;;;;;;;;;;;26.30;90.90;;;;;;5047311;28;19905;-52
2022/08/17 07:34:30;;;;;;;;;;;26.30;90.90;;;;;;5047604;28;19915;-56
2022/08/17 07:37:03;;;;;;;;;;;26.30;90.90;;;;;;5047176;28;19956;-53
2022/08/17 07:39:30;;;;;;;;;;;26.30;90.90;;;;;;5047305;28;19909;-52
2022/08/17 07:42:03;;;;;;;;;;;26.30;90.80;;;;;;5047011;28;20216;-52
2022/08/17 07:44:29;;;;;;;;;;;26.30;90.80;;;;;;5047031;28;19913;-53
2022/08/17 07:49:43;;;;;;;;;;;26.30;90.80;;;;;;5047062;28;19924;-52
2022/08/17 07:52:11;;;;;;;;;;;26.30;90.70;;;;;;5046933;28;20016;-52
2022/08/17 07:54:39;;;;;;;;;;;26.30;90.70;;;;;;5046795;28;19909;-52
2022/08/17 07:57:14;;;;;;;;;;;26.30;90.60;;;;;;5046925;28;20260;-50
2022/08/17 07:59:41;;;;;;;;;;;26.30;90.60;;;;;;5046942;28;19980;-53
2022/08/17 08:02:14;;;;;;;;;;;26.30;90.50;;;;;;5046663;28;19909;-54
2022/08/17 08:04:42;;;;;;;;;;;26.30;90.50;;;;;;5046441;28;20101;-53
2022/08/17 08:07:19;;;;;;;;;;;26.30;90.40;;;;;;5046310;28;20235;-52
2022/08/17 08:09:58;;;;;;;;;;;26.30;90.40;;;;;;5046884;28;19913;-52
2022/08/17 08:12:32;;;;;;;;;;;26.30;90.30;;;;;;5046531;28;19920;-57
2022/08/17 08:15:18;;;;;;;;;;;26.30;90.30;;;;;;5046500;28;20109;-55
2022/08/17 08:17:49;;;;;;;;;;;26.20;90.20;;;;;;5046540;28;19988;-53
2022/08/17 08:20:16;;;;;;;;;;;26.30;90.20;;;;;;5046596;28;19973;-51
2022/08/17 08:22:47;;;;;;;;;;;26.20;90.10;;;;;;5046751;28;19963;-51
2022/08/17 08:25:16;;;;;;;;;;;26.20;90.20;;;;;;5046180;28;19936;-52
2022/08/17 08:27:52;;;;;;;;;;;26.20;90.20;;;;;;5046439;28;19909;-53
2022/08/17 08:30:20;;;;;;;;;;;26.20;90.20;;;;;;5046125;28;19909;-52
2022/08/17 08:32:49;;;;;;;;;;;26.20;90.20;;;;;;5046485;28;19913;-53
2022/08/17 08:35:32;;;;;;;;;;;26.10;90.10;;;;;;5046340;28;19909;-50
2022/08/17 08:38:14;;;;;;;;;;;26.10;90.00;;;;;;5046505;28;19920;-53
2022/08/17 08:40:58;;;;;;;;;;;26.20;90.10;;;;;;5046200;28;19909;-54
2022/08/17 08:43:35;;;;;;;;;;;26.10;90.10;;;;;;5046353;28;19913;-54
2022/08/17 08:46:13;;;;;;;;;;;26.10;90.10;;;;;;5045890;28;19913;-52
2022/08/17 08:48:40;;;;;;;;;;;26.10;90.10;;;;;;5046287;28;19937;-56
2022/08/17 08:51:09;;;;;;;;;;;26.10;90.10;;;;;;5045857;28;20177;-55
2022/08/17 08:53:36;;;;;;;;;;;26.10;90.10;;;;;;5046201;28;19917;-52
2022/08/17 08:56:05;;;;;;;;;;;26.10;90.10;;;;;;5045758;28;19909;-52
2022/08/17 08:58:33;;;;;;;;;;;26.10;90.10;;;;;;5046130;28;19909;-52
2022/08/17 09:01:02;;;;;;;;;;;26.10;90.10;;;;;;5045537;28;19909;-55
2022/08/17 09:03:37;;;;;;;;;;;26.10;90.20;;;;;;5046033;28;20101;-52
2022/08/17 09:06:04;;;;;;;;;;;26.10;90.20;;;;;;5045589;28;20205;-53
2022/08/17 09:08:34;;;;;;;;;;;26.10;90.20;;;;;;5045946;28;19921;-52
2022/08/17 09:11:19;;;;;;;;;;;26.10;90.20;;;;;;5045632;28;19905;-51
2022/08/17 09:13:58;;;;;;;;;;;26.10;90.30;;;;;;5045408;28;19975;-53
2022/08/17 09:16:31;;;;;;;;;;;26.00;90.30;;;;;;5045316;28;19905;-53
2022/08/17 09:19:16;;;;;;;;;;;26.00;90.20;;;;;;5045684;28;20074;-51
2022/08/17 09:21:42;;;;;;;;;;;26.00;90.20;;;;;;5045516;28;19905;-54
2022/08/17 09:24:10;;;;;;;;;;;26.00;90.20;;;;;;5045530;28;19913;-56
2022/08/17 09:26:57;;;;;;;;;;;26.00;90.10;;;;;;5045214;28;20232;-57
2022/08/17 09:29:25;;;;;;;;;;;26.00;90.20;;;;;;5045000;28;19913;-52
2022/08/17 09:32:00;;;;;;;;;;;26.00;90.20;;;;;;5045301;28;19928;-52
2022/08/17 09:34:37;;;;;;;;;;;25.90;90.20;;;;;;5045057;28;19913;-54
2022/08/17 09:37:26;;;;;;;;;;;25.90;90.20;;;;;;5045225;28;20016;-54
2022/08/17 09:39:57;;;;;;;;;;;25.90;90.20;;;;;;5044844;28;19909;-51
2022/08/17 09:42:28;;;;;;;;;;;25.90;90.20;;;;;;5045091;28;19920;-52
2022/08/17 09:44:58;;;;;;;;;;;25.90;90.20;;;;;;5044810;28;20081;-54
2022/08/17 09:47:29;;;;;;;;;;;25.90;90.20;;;;;;5044771;28;19980;-51
2022/08/17 09:49:59;;;;;;;;;;;25.90;90.30;;;;;;5044794;28;19940;-51
2022/08/17 09:52:27;;;;;;;;;;;25.90;90.20;;;;;;5044674;28;19944;-53
2022/08/17 09:54:54;;;;;;;;;;;25.90;90.20;;;;;;5044569;28;19983;-52
2022/08/17 09:57:23;;;;;;;;;;;25.90;90.30;;;;;;5044668;28;19913;-52
2022/08/17 10:02:55;;;;;;;;;;;25.90;90.20;;;;;;5044662;28;19913;-51
2022/08/17 10:05:42;;;;;;;;;;;25.80;90.20;;;;;;5044886;28;19924;-51
2022/08/17 10:08:11;;;;;;;;;;;25.80;90.20;;;;;;5044774;28;20181;-51
2022/08/17 10:10:52;;;;;;;;;;;25.80;90.20;;;;;;5044526;28;20350;-52
2022/08/17 10:13:24;;;;;;;;;;;25.80;90.20;;;;;;5044363;28;20161;-51
2022/08/17 10:15:57;;;;;;;;;;;25.80;90.30;;;;;;5044365;28;19955;-51
2022/08/17 10:18:41;;;;;;;;;;;25.80;90.30;;;;;;5044815;28;20166;-53
2022/08/17 10:27:14;;;;;;;;;;;25.80;90.20;;;;;;5043399;28;19955;-56
2022/08/17 10:29:45;;;;;;;;;;;25.80;90.20;;;;;;5043670;28;19909;-54
2022/08/17 10:32:13;;;;;;;;;;;25.80;90.20;;;;;;5044195;28;19967;-53
2022/08/17 10:34:46;;;;;;;;;;;25.70;90.10;;;;;;5044186;28;19984;-55
2022/08/17 10:37:19;;;;;;;;;;;25.70;90.20;;;;;;5044196;28;19906;-52
2022/08/17 10:39:52;;;;;;;;;;;25.70;90.10;;;;;;5044104;28;19910;-55
2022/08/17 10:42:28;;;;;;;;;;;25.70;90.00;;;;;;5044151;28;19916;-51
2022/08/17 10:45:06;;;;;;;;;;;25.70;90.00;;;;;;5044022;28;20153;-54
2022/08/17 10:47:52;;;;;;;;;;;25.70;90.00;;;;;;5044230;28;19958;-54
2022/08/17 10:50:36;;;;;;;;;;;25.70;90.00;;;;;;5043869;28;19909;-53
2022/08/17 10:53:03;;;;;;;;;;;25.70;90.00;;;;;;5044504;28;20169;-53
2022/08/17 10:55:29;;;;;;;;;;;25.70;90.00;;;;;;5044287;28;19909;-53
2022/08/17 10:58:15;;;;;;;;;;;25.70;90.10;;;;;;5043823;28;20235;-54
2022/08/17 11:00:41;;;;;;;;;;;25.70;90.10;;;;;;5043942;28;19948;-55
2022/08/17 11:03:22;;;;;;;;;;;25.70;90.10;;;;;;5043875;28;19969;-56
2022/08/17 11:06:11;;;;;;;;;;;25.70;90.10;;;;;;5043812;28;19909;-53
2022/08/17 11:08:50;;;;;;;;;;;25.70;90.10;;;;;;5044139;28;20208;-55
2022/08/17 11:11:35;;;;;;;;;;;25.70;90.10;;;;;;5043672;28;19909;-56
2022/08/17 11:14:17;;;;;;;;;;;25.70;90.00;;;;;;5043716;28;19928;-57
2022/08/17 11:16:46;;;;;;;;;;;25.70;90.10;;;;;;5043934;28;19909;-57
2022/08/17 11:19:28;;;;;;;;;;;25.70;90.20;;;;;;5044319;28;20148;-58
2022/08/17 11:22:09;;;;;;;;;;;25.80;90.20;;;;;;5043642;28;20201;-59
2022/08/17 11:24:36;;;;;;;;;;;25.90;90.00;;;;;;5043772;28;19917;-56
2022/08/17 11:27:19;;;;;;;;;;;26.10;89.70;;;;;;5043250;28;20320;-54
2022/08/17 11:30:00;;;;;;;;;;;26.30;89.00;;;;;;5042157;28;20078;-52
2022/08/17 11:32:26;;;;;;;;;;;26.60;88.20;;;;;;5042198;28;19927;-51
2022/08/17 11:35:04;;;;;;;;;;;26.90;87.40;;;;;;5042086;28;19909;-54
2022/08/17 11:37:35;;;;;;;;;;;27.00;87.00;;;;;;5042144;28;19922;-57
2022/08/17 11:40:10;;;;;;;;;;;27.00;86.80;;;;;;5042189;28;19980;-53
2022/08/17 11:42:54;;;;;;;;;;;27.30;86.40;;;;;;5045481;28;19920;-53
2022/08/17 11:45:23;;;;;;;;;;;27.70;85.60;;;;;;5045408;28;19929;-52
2022/08/17 11:53:38;;;;;;;;;;;28.10;84.00;;;;;;5047286;28;19920;-53
2022/08/17 11:56:08;;;;;;;;;;;27.70;85.00;;;;;;5047188;28;19944;-54
2022/08/17 11:58:36;;;;;;;;;;;27.50;85.90;;;;;;5047169;28;19913;-53
2022/08/17 12:01:07;;;;;;;;;;;27.30;86.70;;;;;;5046833;28;19909;-54
2022/08/17 12:03:33;;;;;;;;;;;27.20;87.30;;;;;;5047095;28;19909;-52
2022/08/17 12:06:23;;;;;;;;;;;27.10;87.80;;;;;;5046687;28;20145;-53
2022/08/17 12:08:53;;;;;;;;;;;27.00;88.20;;;;;;5046067;28;19920;-51
2022/08/17 12:11:24;;;;;;;;;;;26.90;88.50;;;;;;5046599;28;19909;-56
2022/08/17 12:13:55;;;;;;;;;;;26.90;88.60;;;;;;5046688;28;19921;-52
2022/08/17 12:16:21;;;;;;;;;;;26.90;88.90;;;;;;5046572;28;19915;-51
2022/08/17 12:18:52;;;;;;;;;;;26.90;89.00;;;;;;5047071;28;19909;-54
2022/08/17 12:21:36;;;;;;;;;;;26.90;89.20;;;;;;5046497;28;19910;-59
2022/08/17 12:24:19;;;;;;;;;;;26.90;89.40;;;;;;5046699;28;19920;-56
2022/08/17 12:26:54;;;;;;;;;;;26.90;89.70;;;;;;5046442;28;19909;-50
2022/08/17 12:29:20;;;;;;;;;;;26.90;89.70;;;;;;5046707;28;19917;-51
2022/08/17 12:31:47;;;;;;;;;;;26.90;89.90;;;;;;5046385;28;19987;-54
2022/08/17 12:34:16;;;;;;;;;;;27.00;90.00;;;;;;5046827;28;19988;-56
2022/08/17 12:36:42;;;;;;;;;;;26.90;89.80;;;;;;5046015;28;19952;-58
2022/08/17 12:39:08;;;;;;;;;;;27.00;90.00;;;;;;5046734;28;19914;-56
2022/08/17 12:41:34;;;;;;;;;;;27.00;90.00;;;;;;5046263;28;20121;-53
2022/08/17 12:44:08;;;;;;;;;;;27.10;90.10;;;;;;5045901;28;19913;-55
2022/08/17 12:46:54;;;;;;;;;;;27.10;90.20;;;;;;5046159;28;19948;-52
2022/08/17 12:49:22;;;;;;;;;;;27.10;90.20;;;;;;5046355;28;19913;-51
2022/08/17 12:51:50;;;;;;;;;;;27.10;90.30;;;;;;5045482;28;19909;-52
2022/08/17 12:54:26;;;;;;;;;;;27.10;90.30;;;;;;5046578;28;19924;-53
2022/08/17 12:56:52;;;;;;;;;;;27.10;90.40;;;;;;5045811;28;19909;-53
2022/08/17 12:59:21;;;;;;;;;;;27.10;90.40;;;;;;5046349;28;19920;-51
2022/08/17 13:01:47;;;;;;;;;;;27.10;90.50;;;;;;5045859;28;19905;-51
2022/08/17 13:04:14;;;;;;;;;;;27.10;90.60;;;;;;5046116;28;19944;-51
2022/08/17 13:06:46;;;;;;;;;;;27.10;90.70;;;;;;5046140;28;19909;-51
2022/08/17 13:09:18;;;;;;;;;;;27.10;90.70;;;;;;5046311;28;20199;-55
2022/08/17 13:11:53;;;;;;;;;;;27.20;90.80;;;;;;5045587;28;19909;-51
2022/08/17 13:14:20;;;;;;;;;;;27.20;90.80;;;;;;5045856;28;19948;-52
2022/08/17 13:16:58;;;;;;;;;;;27.10;90.90;;;;;;5045366;28;19933;-53
2022/08/17 13:19:26;;;;;;;;;;;27.20;90.90;;;;;;5045587;28;19914;-52
2022/08/17 13:21:55;;;;;;;;;;;27.20;91.00;;;;;;5045200;28;19931;-53
2022/08/17 13:24:28;;;;;;;;;;;27.30;91.00;;;;;;5045347;28;19963;-52
2022/08/17 13:27:00;;;;;;;;;;;27.30;91.00;;;;;;5045618;28;19916;-51
2022/08/17 13:29:47;;;;;;;;;;;27.30;91.10;;;;;;5045167;28;19948;-51
2022/08/17 13:32:30;;;;;;;;;;;27.30;91.10;;;;;;5045442;28;19955;-51
2022/08/17 13:35:01;;;;;;;;;;;27.30;91.10;;;;;;5045205;28;19939;-51
2022/08/17 13:37:33;;;;;;;;;;;27.30;91.10;;;;;;5045263;28;19955;-51
2022/08/17 13:40:06;;;;;;;;;;;27.40;91.20;;;;;;5045005;28;19915;-51
2022/08/17 13:42:41;;;;;;;;;;;27.40;91.20;;;;;;5045795;28;19944;-54
2022/08/17 13:45:25;;;;;;;;;;;27.40;91.20;;;;;;5044770;28;19913;-52
2022/08/17 13:48:08;;;;;;;;;;;27.40;91.20;;;;;;5045520;28;19913;-52
2022/08/17 13:50:35;;;;;;;;;;;27.40;91.20;;;;;;5044775;28;19924;-53
2022/08/17 13:53:02;;;;;;;;;;;27.50;91.20;;;;;;5045187;28;19913;-52
2022/08/17 13:55:30;;;;;;;;;;;27.50;91.10;;;;;;5044939;28;19912;-54
2022/08/17 13:57:56;;;;;;;;;;;27.50;91.10;;;;;;5045563;28;19948;-51
2022/08/17 14:11:49;;;;;;;;;;;27.60;91.00;;;;;;5120619;27;19975;-55
2022/08/17 14:14:15;;;;;;;;;;;27.90;90.20;;;;;;5122453;28;19912;-57
2022/08/17 14:16:41;;;;;;;;;;;27.90;90.20;;;;;;5122129;28;19904;-56
2022/08/17 14:19:10;;;;;;;;;;;27.90;90.00;;;;;;5121919;28;19962;-54
2022/08/17 14:21:36;;;;;;;;;;;27.90;89.80;;;;;;5122185;28;19908;-55
2022/08/17 14:24:03;;;;;;;;;;;27.90;89.60;;;;;;5122028;28;19904;-55
2022/08/17 14:26:29;;;;;;;;;;;27.90;89.30;;;;;;5121795;28;19974;-55
2022/08/17 14:28:55;;;;;;;;;;;27.90;89.20;;;;;;5120771;28;19908;-56
2022/08/17 14:31:21;;;;;;;;;;;27.90;89.00;;;;;;5120813;28;19908;-58
2022/08/17 14:33:47;;;;;;;;;;;27.90;88.80;;;;;;5121637;28;19908;-55
2022/08/17 14:36:14;;;;;;;;;;;27.90;88.20;;;;;;5121876;28;19935;-55
2022/08/17 14:38:40;;;;;;;;;;;27.90;87.90;;;;;;5121750;28;19943;-59
2022/08/17 14:41:06;;;;;;;;;;;28.00;87.60;;;;;;5120972;28;19916;-60
2022/08/17 14:43:34;;;;;;;;;;;28.00;87.20;;;;;;5121730;28;20119;-54
2022/08/17 14:46:00;;;;;;;;;;;27.90;87.00;;;;;;5120592;28;19918;-56
2022/08/17 14:48:27;;;;;;;;;;;28.00;86.50;;;;;;5121409;28;19967;-58
2022/08/17 14:50:55;;;;;;;;;;;28.00;86.40;;;;;;5121961;28;20003;-56
2022/08/17 14:53:21;;;;;;;;;;;28.00;86.40;;;;;;5121467;28;20211;-54
2022/08/17 14:55:48;;;;;;;;;;;28.00;86.00;;;;;;5121939;28;19908;-54
2022/08/17 14:58:15;;;;;;;;;;;28.00;85.60;;;;;;5121438;28;19916;-57
2022/08/17 15:00:42;;;;;;;;;;;28.10;85.40;;;;;;5121548;28;19916;-55
2022/08/17 15:03:10;;;;;;;;;;;28.10;85.30;;;;;;5121447;28;19915;-54
2022/08/17 15:05:37;;;;;;;;;;;28.10;85.00;;;;;;5120418;28;19987;-53
2022/08/17 15:08:04;;;;;;;;;;;28.10;84.80;;;;;;5118526;28;19908;-55
2022/08/17 15:10:30;;;;;;;;;;;28.10;84.40;;;;;;5110819;28;19927;-52
2022/08/17 15:12:57;;;;;;;;;;;28.10;84.20;;;;;;5086790;28;19942;-56
2022/08/17 15:15:23;;;;;;;;;;;28.20;83.50;;;;;;5091859;28;20207;-56
2022/08/17 15:17:50;;;;;;;;;;;28.20;83.40;;;;;;5098737;28;19909;-56
2022/08/17 15:20:22;;;;;;;;;;;28.30;83.00;;;;;;5098602;28;19951;-64